Terminal Aerodrome Forecast
Issued by NWS Wilmington, OH

Current Version | Previous Version | Graphics & Text | Print | Product List | Glossary On
Versions: 1 2 3 4 5 6 7 8 9 10 11 12 13 14 15 16 17 18 19 20 21 22 23 24 25 26 27 28 29 30 31 32 33
000
FTUS41 KILN 202300
TAFILN
TAF
KILN 202338Z 2100/2124 25004KT P6SM FEW040 SCT150
     FM211200 23007KT P6SM -SHRA VCTS BKN035CB
      TEMPO 2113/2115 3SM -TSRA
     FM211600 23008KT P6SM VCSH SCT040 BKN150
     FM212000 24010KT P6SM VCTS BKN040CB
     FM212200 24009KT P6SM BKN040=

USA.gov is the U.S. government's official web portal to all federal, state and local government web resources and services.